Time;durP1;ratioP1;P1;durP2;ratioP2;P2;SDS_P1;SDS_P2;PMS_P1;PMS_P2;Temp;Humidity;BMP_temperature;BMP_pressure;BME280_temperature;BME280_humidity;BME280_pressure;Samples;Min_cycle;Max_cycle;Signal;HPM_P1;HPM_P2
2023/07/16 00:02:01;;;;;;;23.57;8.20;;;23.70;76.50;;;;;;20513;6834;319047;-75
2023/07/16 00:04:27;;;;;;;4.43;4.13;;;23.80;75.80;;;;;;20485;6848;308057;-75
2023/07/16 00:06:52;;;;;;;3.60;3.40;;;23.90;73.20;;;;;;20695;6844;118247;-74
2023/07/16 00:09:18;;;;;;;3.20;3.00;;;23.70;73.70;;;;;;20764;6829;118120;-75
2023/07/16 00:11:44;;;;;;;3.33;3.17;;;23.40;76.20;;;;;;20553;6829;306577;-74
2023/07/16 00:14:09;;;;;;;3.00;2.80;;;23.40;74.70;;;;;;20698;6829;120933;-74
2023/07/16 00:16:35;;;;;;;3.35;3.15;;;23.30;76.10;;;;;;20544;6829;306447;-75
2023/07/16 00:19:00;;;;;;;4.53;3.67;;;23.40;75.60;;;;;;20481;6829;338227;-74
2023/07/16 00:21:26;;;;;;;3.78;3.47;;;23.70;74.70;;;;;;20512;6829;277616;-74
2023/07/16 00:23:51;;;;;;;3.20;3.00;;;23.90;73.10;;;;;;20731;6829;117033;-74
2023/07/16 00:26:17;;;;;;;3.57;3.03;;;23.80;74.70;;;;;;20725;6829;121827;-74
2023/07/16 00:28:43;;;;;;;4.30;3.90;;;23.50;76.90;;;;;;20515;6829;306722;-75
2023/07/16 00:31:08;;;;;;;3.73;3.37;;;23.60;73.20;;;;;;20708;6829;117665;-74
2023/07/16 00:33:34;;;;;;;3.97;3.78;;;23.50;74.30;;;;;;20516;6829;311139;-74
2023/07/16 00:35:59;;;;;;;4.30;4.00;;;23.70;75.70;;;;;;20552;6829;276556;-74
2023/07/16 00:38:25;;;;;;;4.83;4.17;;;24.00;73.60;;;;;;20549;6829;310668;-74
2023/07/16 00:40:50;;;;;;;3.63;3.40;;;24.30;73.20;;;;;;20760;6829;121547;-74
2023/07/16 00:43:16;;;;;;;4.00;3.40;;;24.20;73.60;;;;;;20745;6829;117422;-74
2023/07/16 00:45:42;;;;;;;3.00;2.80;;;23.70;76.00;;;;;;20761;6829;118855;-74
2023/07/16 00:48:08;;;;;;;3.55;3.20;;;23.70;76.00;;;;;;20531;6829;306795;-74
2023/07/16 00:50:38;;;;;;;3.20;2.90;;;24.20;70.60;;;;;;20556;6829;277747;-74
2023/07/16 00:53:01;;;;;;;4.73;3.10;;;24.20;70.90;;;;;;20511;6829;306722;-73
2023/07/16 00:55:26;;;;;;;2.58;2.37;;;24.40;68.90;;;;;;20766;6829;117638;-74
2023/07/16 00:57:52;;;;;;;4.30;2.67;;;24.20;69.60;;;;;;20758;6829;118230;-74
2023/07/16 01:00:18;;;;;;;2.70;2.50;;;23.90;70.90;;;;;;20554;6828;276376;-73
2023/07/16 01:02:44;;;;;;;2.97;2.77;;;23.90;69.60;;;;;;20758;6829;118373;-74
2023/07/16 01:05:11;;;;;;;2.92;2.60;;;23.80;70.10;;;;;;20748;6829;117378;-73
2023/07/16 01:07:37;;;;;;;3.00;2.80;;;23.50;71.20;;;;;;20555;6829;304102;-74
2023/07/16 01:10:02;;;;;;;4.47;2.40;;;23.60;70.10;;;;;;20766;6829;121492;-74
2023/07/16 01:12:28;;;;;;;2.90;2.72;;;23.60;70.80;;;;;;20551;6829;300488;-74
2023/07/16 01:14:53;;;;;;;2.50;2.40;;;23.70;69.50;;;;;;20739;6829;120457;-74
2023/07/16 01:17:19;;;;;;;2.65;2.50;;;23.60;70.20;;;;;;20552;6829;278894;-74
2023/07/16 01:19:45;;;;;;;2.63;2.43;;;24.00;67.70;;;;;;20554;6829;306881;-74
2023/07/16 01:22:27;;;;;;;2.58;2.47;;;24.00;67.10;;;;;;20546;6829;310983;-74
2023/07/16 01:25:00;;;;;;;2.17;2.00;;;24.20;66.30;;;;;;20699;6829;117178;-75
2023/07/16 01:27:46;;;;;;;2.70;2.50;;;24.00;67.00;;;;;;20504;6844;278057;-74
2023/07/16 01:30:11;;;;;;;2.13;2.03;;;23.90;65.90;;;;;;20710;6844;117529;-74
2023/07/16 01:32:37;;;;;;;2.53;2.10;;;23.70;66.90;;;;;;20488;6844;312553;-74
2023/07/16 01:35:02;;;;;;;1.70;1.60;;;23.70;66.10;;;;;;20694;6844;118729;-74
2023/07/16 01:37:28;;;;;;;2.10;1.90;;;23.60;67.00;;;;;;20491;6844;292312;-74
2023/07/16 01:39:55;;;;;;;1.70;1.60;;;23.50;66.50;;;;;;20760;6829;123084;-74
2023/07/16 01:42:21;;;;;;;2.30;2.00;;;23.50;66.50;;;;;;20751;6829;117418;-74
2023/07/16 01:44:46;;;;;;;2.00;1.80;;;23.20;67.70;;;;;;20543;6829;307630;-74
2023/07/16 01:47:22;;;;;;;2.63;1.63;;;23.30;66.00;;;;;;20736;6829;118390;-74
2023/07/16 01:49:48;;;;;;;1.63;1.57;;;23.00;68.10;;;;;;20760;6829;116993;-73
2023/07/16 01:52:13;;;;;;;1.50;1.40;;;23.00;68.10;;;;;;20752;6829;118748;-73
2023/07/16 01:54:40;;;;;;;1.83;1.73;;;23.00;65.60;;;;;;20550;6829;335843;-73
2023/07/16 01:57:05;;;;;;;2.20;1.50;;;22.90;65.50;;;;;;20739;6829;123270;-73
2023/07/16 01:59:31;;;;;;;1.63;1.60;;;23.00;66.00;;;;;;20546;6829;290666;-73
2023/07/16 02:01:57;;;;;;;1.67;1.58;;;23.10;63.90;;;;;;20547;6829;306966;-73
2023/07/16 02:04:22;;;;;;;1.47;1.43;;;23.40;62.90;;;;;;20542;6829;305684;-73
2023/07/16 02:06:48;;;;;;;1.63;1.53;;;23.70;61.30;;;;;;20543;6829;306408;-72
2023/07/16 02:09:13;;;;;;;1.55;1.42;;;23.80;59.70;;;;;;20532;6829;278107;-73
2023/07/16 02:11:39;;;;;;;1.37;1.37;;;23.90;58.60;;;;;;20558;6827;305600;-73
2023/07/16 02:14:04;;;;;;;1.37;1.27;;;24.00;59.70;;;;;;20550;6829;306827;-73
2023/07/16 02:16:31;;;;;;;1.90;1.80;;;23.70;60.70;;;;;;20762;6829;118100;-73
2023/07/16 02:18:56;;;;;;;1.50;1.40;;;23.70;60.60;;;;;;20530;6829;320146;-73
2023/07/16 02:21:22;;;;;;;1.42;1.30;;;23.70;59.70;;;;;;20553;6829;281094;-73
2023/07/16 02:23:47;;;;;;;1.40;1.30;;;23.80;60.00;;;;;;20549;6829;311734;-73
2023/07/16 02:26:13;;;;;;;1.30;1.30;;;23.80;57.70;;;;;;20762;6829;117411;-73
2023/07/16 02:28:38;;;;;;;1.47;1.37;;;23.60;58.80;;;;;;20762;6829;118565;-74
2023/07/16 02:31:04;;;;;;;1.50;1.40;;;23.20;60.00;;;;;;20524;6829;307278;-74
2023/07/16 02:33:30;;;;;;;2.43;1.50;;;23.10;59.00;;;;;;20763;6829;121144;-73
2023/07/16 02:35:55;;;;;;;1.40;1.30;;;23.00;60.40;;;;;;20549;6829;277576;-73
2023/07/16 02:38:21;;;;;;;1.50;1.40;;;23.10;59.20;;;;;;20548;6829;304757;-73
2023/07/16 02:40:46;;;;;;;1.47;1.47;;;23.30;58.30;;;;;;20750;6829;118690;-73
2023/07/16 02:43:12;;;;;;;1.43;1.30;;;23.10;59.30;;;;;;20536;6829;310892;-73
2023/07/16 02:45:39;;;;;;;2.50;1.60;;;23.00;58.50;;;;;;20551;6829;306939;-73
2023/07/16 02:48:04;;;;;;;1.70;1.60;;;23.20;58.30;;;;;;20763;6829;119240;-73
2023/07/16 02:50:30;;;;;;;2.20;1.70;;;22.90;59.50;;;;;;20551;6829;306520;-73
2023/07/16 02:52:55;;;;;;;3.20;1.40;;;22.90;59.70;;;;;;20734;6829;126748;-73
2023/07/16 02:55:21;;;;;;;1.70;1.50;;;22.70;60.70;;;;;;20551;6829;277411;-73
2023/07/16 02:57:47;;;;;;;3.80;1.70;;;22.70;60.60;;;;;;20548;6829;281612;-73
2023/07/16 03:00:12;;;;;;;1.53;1.43;;;22.90;60.90;;;;;;20760;6829;117489;-73
2023/07/16 03:02:38;;;;;;;1.70;1.60;;;22.80;62.10;;;;;;20541;6829;306893;-73
2023/07/16 03:05:04;;;;;;;2.40;1.30;;;22.90;60.60;;;;;;20743;6829;118969;-73
2023/07/16 03:07:29;;;;;;;1.50;1.40;;;22.70;61.20;;;;;;20761;6829;122991;-73
2023/07/16 03:09:55;;;;;;;1.40;1.30;;;22.50;62.10;;;;;;20753;6829;117071;-73
2023/07/16 03:12:21;;;;;;;2.90;1.37;;;22.00;63.40;;;;;;20768;6829;118383;-73
2023/07/16 03:14:47;;;;;;;1.53;1.40;;;22.00;63.40;;;;;;20751;6829;118125;-73
2023/07/16 03:17:12;;;;;;;1.65;1.35;;;21.90;64.10;;;;;;20742;6829;117916;-73
2023/07/16 03:19:38;;;;;;;1.50;1.40;;;21.70;64.20;;;;;;20753;6829;120734;-73
2023/07/16 03:22:04;;;;;;;1.40;1.30;;;21.50;65.00;;;;;;20761;6828;118089;-73
2023/07/16 03:24:30;;;;;;;1.90;1.50;;;21.80;62.20;;;;;;20538;6829;306009;-73
2023/07/16 03:26:56;;;;;;;3.15;1.70;;;21.80;62.20;;;;;;20530;6829;306501;-74
2023/07/16 03:29:22;;;;;;;4.03;1.63;;;22.20;60.60;;;;;;20758;6829;121203;-74
2023/07/16 03:31:49;;;;;;;1.50;1.33;;;22.00;62.70;;;;;;20760;6829;124083;-74
2023/07/16 03:34:15;;;;;;;2.17;1.40;;;21.90;62.60;;;;;;20762;6829;118592;-74
2023/07/16 03:36:40;;;;;;;1.80;1.47;;;21.80;64.00;;;;;;20749;6829;118650;-74
2023/07/16 03:39:06;;;;;;;3.67;1.70;;;21.70;64.90;;;;;;20513;6829;304613;-74
2023/07/16 03:41:32;;;;;;;4.47;1.60;;;22.00;64.20;;;;;;20740;6829;118414;-73
2023/07/16 03:43:57;;;;;;;4.50;1.70;;;22.10;64.70;;;;;;20733;6829;119711;-73
2023/07/16 03:46:23;;;;;;;1.70;1.60;;;22.00;65.20;;;;;;20547;6822;311885;-73
2023/07/16 03:48:48;;;;;;;2.20;1.70;;;22.20;63.70;;;;;;20554;6822;342055;-73
2023/07/16 03:51:14;;;;;;;3.67;1.70;;;22.70;62.50;;;;;;20533;6822;310467;-73
2023/07/16 03:53:39;;;;;;;1.73;1.50;;;23.00;61.70;;;;;;20507;6831;307326;-73
2023/07/16 03:56:05;;;;;;;3.12;1.42;;;23.20;61.20;;;;;;20741;6836;123074;-73
2023/07/16 03:58:31;;;;;;;2.00;1.80;;;23.10;62.20;;;;;;20521;6836;306865;-73
2023/07/16 04:00:56;;;;;;;3.35;1.75;;;23.10;61.80;;;;;;20527;6831;341837;-74
2023/07/16 04:03:23;;;;;;;2.00;1.80;;;23.50;58.70;;;;;;20527;6836;291645;-73
2023/07/16 04:05:48;;;;;;;2.13;1.60;;;23.50;58.70;;;;;;20737;6836;118111;-73
2023/07/16 04:08:14;;;;;;;1.97;1.50;;;22.90;61.00;;;;;;20726;6836;119697;-73
2023/07/16 04:10:41;;;;;;;3.20;1.83;;;22.90;61.20;;;;;;20521;6831;277597;-73
2023/07/16 04:13:07;;;;;;;1.70;1.60;;;23.00;60.50;;;;;;20484;6836;311908;-73
2023/07/16 04:15:33;;;;;;;1.87;1.77;;;23.10;59.90;;;;;;20736;6831;118357;-73
2023/07/16 04:17:59;;;;;;;1.67;1.40;;;23.10;59.90;;;;;;20686;6836;121057;-75
2023/07/16 04:20:24;;;;;;;3.23;1.80;;;22.80;60.70;;;;;;20476;6841;326857;-75
2023/07/16 04:22:50;;;;;;;2.40;1.70;;;22.90;59.90;;;;;;20554;6826;277952;-75
2023/07/16 04:25:16;;;;;;;2.43;1.40;;;22.90;59.90;;;;;;20739;6826;117150;-75
2023/07/16 04:27:55;;;;;;;2.10;1.83;;;22.90;59.80;;;;;;20403;6826;304059;-78
2023/07/16 04:30:28;;;;;;;2.17;1.67;;;23.00;58.90;;;;;;20334;6826;305568;-75
2023/07/16 04:32:54;;;;;;;1.70;1.60;;;23.20;58.00;;;;;;20266;6826;306189;-75
2023/07/16 04:35:27;;;;;;;1.77;1.67;;;23.30;57.80;;;;;;20734;6825;118737;-76
2023/07/16 04:38:09;;;;;;;1.67;1.57;;;23.10;58.80;;;;;;20775;6826;67132;-75
2023/07/16 04:40:35;;;;;;;3.77;1.70;;;22.80;59.80;;;;;;20271;6826;289675;-75
2023/07/16 04:43:21;;;;;;;2.53;1.77;;;22.80;57.00;;;;;;20556;6826;306902;-75
2023/07/16 04:45:56;;;;;;;2.10;1.80;;;23.00;56.90;;;;;;20552;6826;308472;-75
2023/07/16 04:48:44;;;;;;;2.50;1.60;;;23.30;56.20;;;;;;20450;6826;279009;-74
2023/07/16 04:51:19;;;;;;;2.73;1.60;;;23.30;56.10;;;;;;20518;6826;277975;-74
2023/07/16 04:53:45;;;;;;;1.90;1.80;;;23.40;56.40;;;;;;20715;6826;116504;-75
2023/07/16 04:56:12;;;;;;;2.80;1.63;;;23.00;57.60;;;;;;20533;6826;308552;-74
2023/07/16 04:58:37;;;;;;;1.80;1.70;;;22.70;58.70;;;;;;20712;6826;118658;-74
2023/07/16 05:01:03;;;;;;;1.80;1.70;;;22.70;58.70;;;;;;20533;6826;305874;-74
2023/07/16 05:03:29;;;;;;;2.17;2.00;;;22.90;57.70;;;;;;20552;6826;276985;-75
2023/07/16 05:05:54;;;;;;;2.17;1.83;;;22.90;57.00;;;;;;20552;6826;279946;-73
2023/07/16 05:08:21;;;;;;;4.03;1.63;;;22.80;58.10;;;;;;20751;6826;117502;-73
2023/07/16 05:10:46;;;;;;;2.27;2.07;;;22.80;58.10;;;;;;20553;6826;307078;-73
2023/07/16 05:13:13;;;;;;;1.63;1.40;;;22.50;58.10;;;;;;20738;6826;122746;-73
2023/07/16 05:15:38;;;;;;;3.53;1.87;;;22.50;58.00;;;;;;20544;6826;307406;-74
2023/07/16 05:18:04;;;;;;;3.17;1.80;;;22.60;57.00;;;;;;20552;6826;277504;-73
2023/07/16 05:20:29;;;;;;;3.57;1.57;;;22.70;56.20;;;;;;20769;6826;117020;-73
2023/07/16 05:22:55;;;;;;;2.00;1.70;;;22.60;57.40;;;;;;20558;6826;276598;-73
2023/07/16 05:25:21;;;;;;;1.70;1.53;;;22.60;55.40;;;;;;20768;6826;117764;-74
2023/07/16 05:27:46;;;;;;;1.80;1.60;;;22.50;56.60;;;;;;20553;6826;277290;-74
2023/07/16 05:30:12;;;;;;;2.33;1.70;;;22.60;55.90;;;;;;20547;6826;306910;-71
2023/07/16 05:32:37;;;;;;;3.90;1.93;;;22.90;55.00;;;;;;20746;6826;117119;-73
2023/07/16 05:35:03;;;;;;;2.00;1.62;;;22.70;56.00;;;;;;20519;6826;302499;-73
2023/07/16 05:37:29;;;;;;;3.53;1.60;;;22.80;55.30;;;;;;20754;6826;117673;-73
2023/07/16 05:39:54;;;;;;;1.50;1.40;;;22.70;56.40;;;;;;20746;6826;117104;-70
2023/07/16 05:42:20;;;;;;;2.00;1.70;;;22.50;57.50;;;;;;20759;6826;116890;-74
2023/07/16 05:44:45;;;;;;;2.60;1.87;;;22.30;58.30;;;;;;20543;6824;282082;-74
2023/07/16 05:47:28;;;;;;;5.80;2.10;;;22.50;57.30;;;;;;20680;6825;118253;-77
2023/07/16 05:49:53;;;;;;;4.85;2.20;;;22.60;58.90;;;;;;20560;6826;305930;-73
2023/07/16 05:52:19;;;;;;;2.33;2.05;;;22.90;56.50;;;;;;20765;6826;118251;-73
2023/07/16 05:54:45;;;;;;;3.63;1.90;;;23.00;57.30;;;;;;20779;6826;117113;-74
2023/07/16 05:57:10;;;;;;;3.20;2.03;;;22.80;57.90;;;;;;20502;6826;306632;-74
2023/07/16 05:59:37;;;;;;;4.30;2.00;;;23.00;56.20;;;;;;20729;6826;118316;-74
2023/07/16 06:02:04;;;;;;;1.87;1.67;;;23.00;57.10;;;;;;20749;6826;118932;-74
2023/07/16 06:04:33;;;;;;;2.50;1.90;;;22.80;57.70;;;;;;20517;6826;276974;-75
2023/07/16 06:10:10;;;;;;;2.90;2.37;;;23.00;57.60;;;;;;20492;6831;67486;-76
2023/07/16 06:12:39;;;;;;;5.47;1.90;;;22.70;58.50;;;;;;20609;6845;67331;-76
2023/07/16 06:15:06;;;;;;;1.80;1.70;;;22.50;59.40;;;;;;20452;6836;312200;-73
2023/07/16 06:17:39;;;;;;;3.10;1.77;;;22.60;58.30;;;;;;20587;6836;117765;-73
2023/07/16 06:20:05;;;;;;;4.53;1.40;;;22.70;58.50;;;;;;20494;6841;118796;-74
2023/07/16 06:22:30;;;;;;;2.53;1.40;;;22.50;59.20;;;;;;20762;6826;118018;-76
2023/07/16 06:24:56;;;;;;;4.27;1.83;;;22.40;60.40;;;;;;20767;6826;119134;-75
2023/07/16 06:27:21;;;;;;;3.00;1.57;;;22.30;60.40;;;;;;20742;6826;117936;-75
2023/07/16 06:29:48;;;;;;;1.70;1.60;;;22.20;61.40;;;;;;20778;6826;116846;-76
2023/07/16 06:32:13;;;;;;;2.63;1.80;;;22.10;61.30;;;;;;20769;6826;118314;-77
2023/07/16 06:34:39;;;;;;;2.63;1.93;;;22.20;61.50;;;;;;20554;6826;306057;-75
2023/07/16 06:37:05;;;;;;;1.97;1.60;;;22.50;59.10;;;;;;20752;6826;121011;-76
2023/07/16 06:39:30;;;;;;;3.40;2.00;;;22.60;59.30;;;;;;20764;6826;118374;-76
2023/07/16 06:41:56;;;;;;;2.27;2.07;;;22.50;59.80;;;;;;20535;6826;276511;-77
2023/07/16 06:44:21;;;;;;;1.70;1.60;;;22.80;57.30;;;;;;20771;6826;117484;-72
2023/07/16 06:46:47;;;;;;;4.05;2.75;;;22.90;58.00;;;;;;20545;6826;276630;-73
2023/07/16 06:49:13;;;;;;;3.67;2.30;;;23.20;56.60;;;;;;20527;6826;276933;-78
2023/07/16 06:51:39;;;;;;;3.08;1.87;;;23.90;55.20;;;;;;20571;6826;309150;-76
2023/07/16 06:54:05;;;;;;;2.63;2.03;;;23.90;55.90;;;;;;20552;6826;278394;-76
2023/07/16 06:56:31;;;;;;;4.20;2.07;;;24.20;54.40;;;;;;20763;6824;117616;-76
2023/07/16 06:58:56;;;;;;;2.43;1.83;;;24.20;55.30;;;;;;20759;6825;118542;-76
2023/07/16 07:01:22;;;;;;;2.57;1.93;;;24.00;56.00;;;;;;20564;6826;290946;-77
2023/07/16 07:03:49;;;;;;;3.37;1.90;;;24.10;53.40;;;;;;20822;6826;116631;-76
2023/07/16 07:06:14;;;;;;;2.93;2.00;;;24.10;54.40;;;;;;20580;6826;306612;-75
2023/07/16 07:08:40;;;;;;;3.57;1.80;;;24.30;53.30;;;;;;20771;6826;116961;-74
2023/07/16 07:11:05;;;;;;;3.30;1.93;;;24.40;54.90;;;;;;20524;6826;310684;-75
2023/07/16 07:13:33;;;;;;;4.03;2.05;;;25.60;51.40;;;;;;20554;6826;335137;-75
2023/07/16 07:15:59;;;;;;;2.35;1.85;;;25.60;51.30;;;;;;20549;6826;310699;-74
2023/07/16 07:18:25;;;;;;;2.97;1.98;;;26.30;49.20;;;;;;20789;6826;123124;-79
2023/07/16 07:20:52;;;;;;;2.62;1.95;;;27.10;48.70;;;;;;20589;6826;336787;-77
2023/07/16 07:23:17;;;;;;;3.15;1.87;;;27.00;48.60;;;;;;20562;6826;306087;-77
2023/07/16 07:25:43;;;;;;;3.78;1.60;;;27.60;46.80;;;;;;20781;6826;116622;-81
2023/07/16 07:28:09;;;;;;;3.13;1.70;;;27.60;50.10;;;;;;20766;6826;117403;-78
2023/07/16 07:30:35;;;;;;;2.40;1.70;;;27.60;50.00;;;;;;20571;6826;307249;-79
2023/07/16 07:33:00;;;;;;;2.00;1.83;;;27.80;46.50;;;;;;20777;6826;123481;-78
2023/07/16 07:35:26;;;;;;;2.17;1.70;;;27.80;47.90;;;;;;20787;6826;123163;-74
2023/07/16 07:37:51;;;;;;;3.07;1.90;;;27.70;48.60;;;;;;20551;6826;310974;-78
2023/07/16 07:40:17;;;;;;;3.00;1.95;;;27.90;46.60;;;;;;20775;6826;117313;-76
2023/07/16 07:42:43;;;;;;;7.30;2.17;;;27.90;48.10;;;;;;20768;6826;117493;-75
2023/07/16 07:45:08;;;;;;;2.50;2.30;;;27.80;48.70;;;;;;20538;6826;280043;-77
2023/07/16 07:47:34;;;;;;;1.87;1.77;;;27.70;46.50;;;;;;20571;6826;277002;-75
2023/07/16 07:50:00;;;;;;;2.20;1.70;;;27.90;44.80;;;;;;20749;6826;116969;-77
2023/07/16 07:52:26;;;;;;;2.33;2.00;;;27.70;46.70;;;;;;20761;6826;117724;-75
2023/07/16 07:54:53;;;;;;;4.97;2.17;;;27.50;47.70;;;;;;20546;6826;333819;-77
2023/07/16 07:57:20;;;;;;;3.47;2.30;;;27.50;45.50;;;;;;20524;6826;276854;-76
2023/07/16 07:59:45;;;;;;;2.50;2.17;;;27.80;44.90;;;;;;20558;6826;336297;-77
2023/07/16 08:02:11;;;;;;;3.37;2.10;;;28.10;44.50;;;;;;20771;6826;117477;-77
2023/07/16 08:04:37;;;;;;;3.17;1.80;;;28.10;46.00;;;;;;20712;6826;117289;-76
2023/07/16 08:07:03;;;;;;;2.53;2.10;;;28.00;47.50;;;;;;20739;6826;120791;-77
2023/07/16 08:09:30;;;;;;;3.37;2.20;;;28.00;48.00;;;;;;20770;6824;117629;-78
2023/07/16 08:11:56;;;;;;;2.27;2.07;;;28.00;48.00;;;;;;20546;6825;304998;-76
2023/07/16 08:14:22;;;;;;;2.80;2.03;;;28.30;44.50;;;;;;20547;6826;329754;-76
2023/07/16 08:16:47;;;;;;;3.53;1.97;;;28.60;43.70;;;;;;20771;6826;122885;-77
2023/07/16 08:19:14;;;;;;;2.27;2.03;;;28.50;44.80;;;;;;20535;6826;277436;-77
2023/07/16 08:21:39;;;;;;;2.20;2.00;;;28.40;41.00;;;;;;20745;6826;117422;-76
2023/07/16 08:24:06;;;;;;;4.80;2.00;;;28.30;41.90;;;;;;20536;6826;307146;-77
2023/07/16 08:26:33;;;;;;;3.58;2.00;;;28.70;42.40;;;;;;20548;6826;310064;-77
2023/07/16 08:29:01;;;;;;;3.67;2.13;;;28.60;42.30;;;;;;20525;6826;306869;-80
2023/07/16 08:31:25;;;;;;;2.10;1.90;;;29.00;40.20;;;;;;20547;6826;305938;-77
2023/07/16 08:33:50;;;;;;;2.80;2.07;;;29.30;42.10;;;;;;20524;6826;312298;-77
2023/07/16 08:36:16;;;;;;;3.47;1.97;;;29.60;39.80;;;;;;20531;6826;306423;-77
2023/07/16 08:38:42;;;;;;;3.17;1.83;;;29.70;39.40;;;;;;20763;6826;119427;-77
2023/07/16 08:41:08;;;;;;;3.27;1.73;;;29.40;41.70;;;;;;20525;6826;277226;-77
2023/07/16 08:43:33;;;;;;;3.47;1.97;;;29.40;40.40;;;;;;20551;6826;299745;-77
2023/07/16 08:46:01;;;;;;;2.20;1.80;;;29.70;41.10;;;;;;20745;6826;117358;-76
2023/07/16 08:48:27;;;;;;;4.40;2.30;;;29.70;41.10;;;;;;20538;6826;294876;-75
2023/07/16 08:50:52;;;;;;;2.10;1.70;;;29.90;39.00;;;;;;20768;6826;116920;-77
2023/07/16 08:53:18;;;;;;;2.40;2.00;;;29.90;41.30;;;;;;20751;6826;117947;-76
2023/07/16 08:55:44;;;;;;;2.00;1.77;;;29.70;42.20;;;;;;20783;6826;115996;-80
2023/07/16 08:58:09;;;;;;;2.03;1.80;;;29.50;42.50;;;;;;20497;6826;310509;-77
2023/07/16 09:00:35;;;;;;;2.77;1.83;;;29.60;37.80;;;;;;20748;6826;118874;-77
2023/07/16 09:03:01;;;;;;;2.43;2.10;;;29.40;40.30;;;;;;20543;6826;306538;-77
2023/07/16 09:05:26;;;;;;;1.90;1.70;;;29.50;39.60;;;;;;20495;6826;308447;-77
2023/07/16 09:07:52;;;;;;;2.43;2.17;;;29.60;41.30;;;;;;20768;6826;121209;-77
2023/07/16 09:10:19;;;;;;;4.33;1.77;;;29.60;41.30;;;;;;20775;6826;120707;-76
2023/07/16 09:12:45;;;;;;;2.47;2.10;;;29.50;41.70;;;;;;20559;6826;306399;-78
2023/07/16 09:15:12;;;;;;;2.67;2.00;;;29.70;39.50;;;;;;20538;6826;311086;-77
2023/07/16 09:17:38;;;;;;;2.62;1.90;;;30.00;38.30;;;;;;20559;6826;336034;-78
2023/07/16 09:20:03;;;;;;;2.70;1.67;;;30.30;37.40;;;;;;20773;6824;116331;-77
2023/07/16 09:22:29;;;;;;;2.53;2.33;;;30.30;39.50;;;;;;20821;6825;116070;-76
2023/07/16 09:24:56;;;;;;;1.63;1.53;;;30.10;41.20;;;;;;20811;6826;66618;-77
2023/07/16 09:27:21;;;;;;;2.85;2.08;;;30.00;41.10;;;;;;20547;6826;305866;-77
2023/07/16 09:29:46;;;;;;;1.90;1.70;;;30.30;37.70;;;;;;20792;6826;116271;-77
2023/07/16 09:32:12;;;;;;;2.03;1.90;;;30.40;39.40;;;;;;20795;6826;120795;-77
2023/07/16 09:34:39;;;;;;;2.37;1.77;;;30.30;40.40;;;;;;20802;6826;116505;-75
2023/07/16 09:37:04;;;;;;;2.00;1.90;;;30.10;40.60;;;;;;20555;6826;306222;-78
2023/07/16 09:39:30;;;;;;;2.37;1.87;;;30.30;37.40;;;;;;20561;6826;306073;-77
2023/07/16 09:41:57;;;;;;;2.27;1.80;;;30.80;37.70;;;;;;20760;6826;117219;-74
2023/07/16 09:44:21;;;;;;;2.92;2.10;;;30.80;38.40;;;;;;20544;6826;308766;-75
2023/07/16 09:46:46;;;;;;;2.37;1.93;;;30.80;35.80;;;;;;20763;6826;117364;-74
2023/07/16 09:49:12;;;;;;;2.25;1.90;;;30.70;37.70;;;;;;20535;6826;307355;-73
2023/07/16 09:51:38;;;;;;;2.30;1.83;;;30.80;35.90;;;;;;20751;6826;117831;-71
2023/07/16 09:54:03;;;;;;;1.87;1.70;;;30.90;37.20;;;;;;20770;6826;70931;-72
2023/07/16 09:56:36;;;;;;;2.47;2.10;;;30.70;36.90;;;;;;20542;6826;306487;-71
2023/07/16 09:59:01;;;;;;;3.42;2.05;;;30.80;34.50;;;;;;20519;6826;306583;-72
2023/07/16 10:01:27;;;;;;;1.87;1.77;;;31.40;33.20;;;;;;20548;6826;292517;-72
2023/07/16 10:03:56;;;;;;;2.07;1.77;;;31.40;33.10;;;;;;20759;6826;117019;-72
2023/07/16 10:06:21;;;;;;;1.70;1.60;;;31.40;35.90;;;;;;20759;6826;117085;-72
2023/07/16 10:08:50;;;;;;;2.27;1.97;;;31.20;37.10;;;;;;20768;6826;117227;-72
2023/07/16 10:11:15;;;;;;;1.87;1.63;;;30.90;38.20;;;;;;20739;6826;117290;-72
2023/07/16 10:13:41;;;;;;;1.93;1.60;;;30.70;38.90;;;;;;20741;6826;123429;-72
2023/07/16 10:16:10;;;;;;;2.73;2.00;;;30.80;36.30;;;;;;20560;6826;309667;-72
2023/07/16 10:18:34;;;;;;;2.13;2.03;;;30.80;36.30;;;;;;20554;6826;295400;-72
2023/07/16 10:21:08;;;;;;;1.63;1.53;;;31.20;36.30;;;;;;20770;6826;118037;-72
2023/07/16 10:23:39;;;;;;;2.65;2.20;;;31.20;36.90;;;;;;20558;6826;314279;-71
2023/07/16 10:26:06;;;;;;;2.33;2.12;;;31.20;34.90;;;;;;20556;6826;335947;-74
2023/07/16 10:28:31;;;;;;;3.43;2.33;;;31.50;36.90;;;;;;20765;6826;117472;-73
2023/07/16 10:30:57;;;;;;;2.20;2.00;;;31.50;36.80;;;;;;20547;6824;311757;-73
2023/07/16 10:33:22;;;;;;;2.13;1.97;;;31.60;34.50;;;;;;20536;6825;328267;-74
2023/07/16 10:35:49;;;;;;;2.30;2.10;;;31.90;33.00;;;;;;20769;6826;117053;-74
2023/07/16 10:38:16;;;;;;;2.17;1.97;;;32.00;32.50;;;;;;20554;6826;276813;-73
2023/07/16 10:40:41;;;;;;;2.43;2.30;;;32.00;32.50;;;;;;20767;6826;120441;-73
2023/07/16 10:43:07;;;;;;;2.40;1.97;;;31.70;35.60;;;;;;20732;6826;141171;-73
2023/07/16 10:45:33;;;;;;;3.80;2.10;;;31.60;35.60;;;;;;20528;6826;306498;-73
2023/07/16 10:47:59;;;;;;;1.80;1.70;;;31.80;33.30;;;;;;20556;6826;314691;-70
2023/07/16 10:50:24;;;;;;;1.60;1.50;;;32.20;35.00;;;;;;20737;6826;117429;-73
2023/07/16 10:52:51;;;;;;;2.80;1.73;;;32.50;33.80;;;;;;20554;6826;310369;-70
2023/07/16 10:55:16;;;;;;;4.20;2.00;;;32.50;33.80;;;;;;20721;6826;117086;-70
2023/07/16 10:57:42;;;;;;;1.70;1.60;;;32.40;36.20;;;;;;20759;6826;117763;-70
2023/07/16 11:00:10;;;;;;;2.93;2.20;;;32.40;36.20;;;;;;20539;6826;297945;-69
2023/07/16 11:02:36;;;;;;;1.57;1.57;;;32.40;33.30;;;;;;20710;6826;118173;-70
2023/07/16 11:05:02;;;;;;;5.47;1.93;;;32.20;35.40;;;;;;20727;6826;117207;-69
2023/07/16 11:07:27;;;;;;;2.90;2.30;;;32.20;33.60;;;;;;20542;6826;288362;-71
2023/07/16 11:09:53;;;;;;;3.70;2.33;;;32.20;33.60;;;;;;20540;6826;276925;-69
2023/07/16 11:12:22;;;;;;;2.40;2.20;;;32.50;33.30;;;;;;20544;6826;306757;-73
2023/07/16 11:14:47;;;;;;;2.90;2.40;;;32.70;33.50;;;;;;20542;6826;309314;-69
2023/07/16 11:17:13;;;;;;;2.03;1.77;;;33.00;32.90;;;;;;20741;6826;117589;-70
2023/07/16 11:19:38;;;;;;;2.53;2.25;;;32.90;34.30;;;;;;20533;6826;317863;-70
2023/07/16 11:22:04;;;;;;;2.40;2.20;;;32.90;33.00;;;;;;20547;6826;278579;-70
2023/07/16 11:24:37;;;;;;;1.90;1.80;;;33.10;32.70;;;;;;20787;6826;117648;-70
2023/07/16 11:27:02;;;;;;;2.00;1.90;;;33.00;34.10;;;;;;20762;6826;117489;-71
2023/07/16 11:29:28;;;;;;;2.70;2.30;;;32.70;34.80;;;;;;20560;6826;308208;-72
2023/07/16 11:31:53;;;;;;;2.10;1.90;;;32.70;32.30;;;;;;20541;6826;310849;-71
2023/07/16 11:34:19;;;;;;;2.30;2.10;;;32.80;32.60;;;;;;20538;6826;308640;-73
2023/07/16 11:36:45;;;;;;;2.20;2.00;;;33.00;31.80;;;;;;20776;6826;117320;-71
2023/07/16 11:39:10;;;;;;;1.90;1.80;;;33.00;33.50;;;;;;20753;6826;118664;-71
2023/07/16 11:41:36;;;;;;;2.33;1.67;;;32.80;34.40;;;;;;20766;6826;117355;-70
2023/07/16 11:44:01;;;;;;;2.13;1.93;;;32.60;35.10;;;;;;20560;6824;298720;-72
2023/07/16 11:46:27;;;;;;;2.10;1.90;;;32.70;30.90;;;;;;20562;6825;282726;-72
2023/07/16 11:48:53;;;;;;;2.28;2.00;;;32.70;31.60;;;;;;20537;6826;289956;-70
2023/07/16 11:51:20;;;;;;;2.13;1.93;;;32.70;31.70;;;;;;20754;6826;119110;-72
2023/07/16 11:53:45;;;;;;;1.93;1.83;;;32.40;33.50;;;;;;20778;6826;117092;-74
2023/07/16 11:56:11;;;;;;;3.00;2.30;;;32.10;34.70;;;;;;20781;6826;119702;-72
2023/07/16 11:58:37;;;;;;;2.50;1.93;;;31.90;32.90;;;;;;20558;6826;307725;-71
2023/07/16 12:01:03;;;;;;;2.20;2.00;;;31.90;32.90;;;;;;20547;6826;335011;-70
2023/07/16 12:03:28;;;;;;;2.10;1.92;;;32.10;33.00;;;;;;20552;6826;311660;-71
2023/07/16 12:05:54;;;;;;;2.00;1.90;;;32.40;32.80;;;;;;20772;6826;117446;-71
2023/07/16 12:08:20;;;;;;;3.03;2.10;;;32.30;34.10;;;;;;20556;6826;336314;-72
2023/07/16 12:10:45;;;;;;;2.17;2.07;;;32.30;32.30;;;;;;20766;6826;120937;-71
2023/07/16 12:13:11;;;;;;;2.13;2.00;;;32.30;32.10;;;;;;20547;6826;278186;-71
2023/07/16 12:15:37;;;;;;;2.20;2.00;;;32.30;32.10;;;;;;20563;6826;277838;-71
2023/07/16 12:18:03;;;;;;;2.62;1.90;;;32.40;32.30;;;;;;20557;6826;307067;-71
2023/07/16 12:20:28;;;;;;;2.33;1.83;;;32.60;31.80;;;;;;20556;6826;306480;-71
2023/07/16 12:22:54;;;;;;;2.30;2.10;;;32.80;31.60;;;;;;20518;6826;312566;-71
2023/07/16 12:25:19;;;;;;;1.87;1.73;;;32.80;31.50;;;;;;20722;6826;117107;-72
2023/07/16 12:27:45;;;;;;;2.23;1.87;;;32.70;33.50;;;;;;20543;6826;311012;-73
2023/07/16 12:30:10;;;;;;;2.10;2.00;;;32.70;31.80;;;;;;20558;6826;294889;-72
2023/07/16 12:32:37;;;;;;;2.17;1.93;;;32.80;31.60;;;;;;20770;6826;118025;-74
2023/07/16 12:35:04;;;;;;;3.60;3.30;;;32.60;32.80;;;;;;20451;6826;306500;-74
2023/07/16 12:37:30;;;;;;;2.27;2.07;;;32.50;31.80;;;;;;20754;6826;117620;-73